createdAt,value
2019-05-14T00:00:45.639Z,0.00
2019-05-14T00:03:45.584Z,0.00
2019-05-14T00:06:45.587Z,0.00
2019-05-14T00:09:45.540Z,0.00
2019-05-14T00:12:45.500Z,0.00
2019-05-14T00:15:45.504Z,0.00
2019-05-14T00:18:45.428Z,0.00
2019-05-14T00:21:45.451Z,0.00
2019-05-14T00:24:45.378Z,0.00
2019-05-14T00:27:45.349Z,0.00
2019-05-14T00:30:45.300Z,0.00
2019-05-14T00:33:45.313Z,0.00
2019-05-14T00:36:45.239Z,0.00
2019-05-14T00:39:45.223Z,0.00
2019-05-14T00:42:45.214Z,0.00
2019-05-14T00:45:45.146Z,0.00
2019-05-14T00:48:45.144Z,0.00
2019-05-14T00:51:45.098Z,0.00
2019-05-14T00:54:45.072Z,0.00
2019-05-14T00:57:45.025Z,0.00
2019-05-14T01:00:45.003Z,0.00
2019-05-14T01:03:44.985Z,0.00
2019-05-14T01:06:44.926Z,0.00
2019-05-14T01:09:44.920Z,0.00
2019-05-14T01:12:44.857Z,0.00
2019-05-14T01:15:44.858Z,0.00
2019-05-14T01:18:44.798Z,0.00
2019-05-14T01:21:44.769Z,0.00
2019-05-14T01:24:44.746Z,0.00
2019-05-14T01:27:44.702Z,0.00
2019-05-14T01:30:44.694Z,0.00
2019-05-14T01:33:44.651Z,0.00
2019-05-14T01:36:44.621Z,0.00
2019-05-14T01:39:44.580Z,0.00
2019-05-14T01:42:44.560Z,0.00
2019-05-14T01:45:44.511Z,0.00
2019-05-14T01:48:44.496Z,0.00
2019-05-14T01:51:44.439Z,0.00
2019-05-14T01:54:44.420Z,0.00
2019-05-14T01:57:44.384Z,0.00
2019-05-14T02:00:44.368Z,0.00
2019-05-14T02:03:44.332Z,0.00
2019-05-14T02:06:44.286Z,0.00
2019-05-14T02:09:44.272Z,0.00
2019-05-14T02:12:44.235Z,0.00
2019-05-14T02:15:44.209Z,0.00
2019-05-14T02:18:44.173Z,0.00
2019-05-14T02:21:44.126Z,0.00
2019-05-14T02:24:44.108Z,0.00
2019-05-14T02:27:44.055Z,0.00
2019-05-14T02:30:52.637Z,0.00
2019-05-14T02:33:45.009Z,0.00
2019-05-14T02:36:43.987Z,0.00
2019-05-14T02:39:43.954Z,0.00
2019-05-14T02:42:43.903Z,0.00
2019-05-14T02:46:00.677Z,0.00
2019-05-14T02:48:44.843Z,0.00
2019-05-14T02:51:43.825Z,0.00
2019-05-14T02:54:43.791Z,0.00
2019-05-14T02:57:43.742Z,0.00
2019-05-14T03:00:43.725Z,0.00
2019-05-14T03:03:43.679Z,0.00
2019-05-14T03:06:43.680Z,0.00
2019-05-14T03:09:43.627Z,0.00
2019-05-14T03:12:43.596Z,0.00
2019-05-14T03:15:43.557Z,0.00
2019-05-14T03:18:43.538Z,0.00
2019-05-14T03:21:43.508Z,0.00
2019-05-14T03:24:43.450Z,0.00
2019-05-14T03:27:43.430Z,0.00
2019-05-14T03:30:43.391Z,5.62
2019-05-14T03:33:44.629Z,5.62
2019-05-14T03:36:44.081Z,5.62
2019-05-14T03:39:43.311Z,11.25
2019-05-14T03:42:43.265Z,11.25
2019-05-14T03:45:43.255Z,16.88
2019-05-14T03:48:43.202Z,16.88
2019-05-14T03:51:43.188Z,22.50
2019-05-14T03:54:43.152Z,28.12
2019-05-14T03:57:43.108Z,28.12
2019-05-14T04:00:43.096Z,33.75
2019-05-14T04:03:43.035Z,39.38
2019-05-14T04:06:43.025Z,45.00
2019-05-14T04:09:42.986Z,45.00
2019-05-14T04:12:42.945Z,50.62
2019-05-14T04:15:42.924Z,56.25
2019-05-14T04:18:42.901Z,61.88
2019-05-14T04:21:42.856Z,67.50
2019-05-14T04:24:42.818Z,73.12
2019-05-14T04:27:42.797Z,78.75
2019-05-14T04:30:42.761Z,84.38
2019-05-14T04:33:42.733Z,84.38
2019-05-14T04:36:42.700Z,90.00
2019-05-14T04:39:42.672Z,95.62
2019-05-14T04:42:42.632Z,112.50
2019-05-14T04:45:42.610Z,185.62
2019-05-14T04:48:44.113Z,174.38
2019-05-14T04:51:42.544Z,123.75
2019-05-14T04:54:42.488Z,140.62
2019-05-14T04:57:42.497Z,208.12
2019-05-14T05:00:42.428Z,236.25
2019-05-14T05:03:42.413Z,247.50
2019-05-14T05:06:42.387Z,225.00
2019-05-14T05:09:42.332Z,213.75
2019-05-14T05:12:42.318Z,202.50
2019-05-14T05:15:42.270Z,213.75
2019-05-14T05:18:42.261Z,208.12
2019-05-14T05:21:42.227Z,225.00
2019-05-14T05:24:42.189Z,196.88
2019-05-14T05:27:42.149Z,151.88
2019-05-14T05:30:42.144Z,191.25
2019-05-14T05:33:42.082Z,174.38
2019-05-14T05:36:42.064Z,286.88
2019-05-14T05:39:42.032Z,354.38
2019-05-14T05:42:41.984Z,393.75
2019-05-14T05:45:41.978Z,371.25
2019-05-14T05:48:41.937Z,461.25
2019-05-14T05:51:41.911Z,748.12
2019-05-14T05:54:41.856Z,787.50
2019-05-14T05:57:41.846Z,568.12
2019-05-14T06:00:41.815Z,916.88
2019-05-14T06:03:41.755Z,556.88
2019-05-14T06:06:41.735Z,1046.25
2019-05-14T06:09:41.690Z,1153.12
2019-05-14T06:12:41.688Z,1158.75
2019-05-14T06:15:48.234Z,1231.88
2019-05-14T06:18:42.603Z,1063.12
2019-05-14T06:21:41.571Z,1310.62
2019-05-14T06:24:48.850Z,1299.38
2019-05-14T06:27:41.512Z,1366.88
2019-05-14T06:30:41.477Z,1350.00
2019-05-14T06:33:41.447Z,388.12
2019-05-14T06:36:41.426Z,1305.00
2019-05-14T06:39:41.369Z,995.62
2019-05-14T06:42:48.898Z,939.38
2019-05-14T06:45:41.300Z,933.75
2019-05-14T06:48:41.285Z,793.12
2019-05-14T06:51:41.256Z,855.00
2019-05-14T06:54:41.211Z,1513.12
2019-05-14T06:57:41.208Z,1715.62
2019-05-14T07:00:41.145Z,1276.88
2019-05-14T07:03:41.113Z,1777.50
2019-05-14T07:06:48.712Z,1822.50
2019-05-14T07:09:41.069Z,1580.62
2019-05-14T07:12:41.028Z,1800.00
2019-05-14T07:15:48.908Z,1935.00
2019-05-14T07:18:53.442Z,1980.00
2019-05-14T07:21:41.913Z,1991.25
2019-05-14T07:24:49.749Z,2103.75
2019-05-14T07:27:48.969Z,2025.00
2019-05-14T07:30:48.715Z,2103.75
2019-05-14T07:33:40.822Z,2171.25
2019-05-14T07:36:49.101Z,2278.12
2019-05-14T07:39:48.660Z,2289.38
2019-05-14T07:42:48.730Z,2137.50
2019-05-14T07:45:49.125Z,2205.00
2019-05-14T07:49:03.556Z,2244.38
2019-05-14T07:51:41.613Z,2289.38
2019-05-14T07:54:48.279Z,2334.38
2019-05-14T07:57:48.297Z,2418.75
2019-05-14T08:00:49.123Z,2463.75
2019-05-14T08:03:48.744Z,2497.50
2019-05-14T08:06:48.760Z,2621.25
2019-05-14T08:09:40.404Z,545.62
2019-05-14T08:12:40.411Z,675.00
2019-05-14T08:15:40.341Z,2666.25
2019-05-14T08:18:40.341Z,466.88
2019-05-14T08:21:49.435Z,371.25
2019-05-14T08:24:40.266Z,365.62
2019-05-14T08:27:48.296Z,517.50
2019-05-14T08:30:49.116Z,2784.38
2019-05-14T08:33:48.866Z,905.62
2019-05-14T08:36:48.355Z,2773.12
2019-05-14T08:39:48.653Z,2705.62
2019-05-14T08:42:49.034Z,2773.12
2019-05-14T08:45:40.064Z,2880.00
2019-05-14T08:48:40.029Z,2818.12
2019-05-14T08:51:39.959Z,2756.25
2019-05-14T08:54:39.951Z,472.50
2019-05-14T08:57:48.938Z,2559.38
2019-05-14T09:00:39.900Z,1473.75
2019-05-14T09:03:39.835Z,534.38
2019-05-14T09:06:39.834Z,523.12
2019-05-14T09:09:39.772Z,562.50
2019-05-14T09:12:39.776Z,759.38
2019-05-14T09:15:39.710Z,3076.88
2019-05-14T09:18:39.707Z,2975.62
2019-05-14T09:21:40.007Z,939.38
2019-05-14T09:24:39.613Z,703.12
2019-05-14T09:27:39.603Z,781.88
2019-05-14T09:30:39.547Z,2120.62
2019-05-14T09:33:39.548Z,3200.62
2019-05-14T09:36:39.835Z,596.25
2019-05-14T09:39:39.478Z,1389.38
2019-05-14T09:42:39.679Z,933.75
2019-05-14T09:45:39.418Z,545.62
2019-05-14T09:48:39.361Z,1558.12
2019-05-14T09:51:39.350Z,765.00
2019-05-14T09:54:43.726Z,804.38
2019-05-14T09:57:39.285Z,3189.38
2019-05-14T10:00:39.252Z,2773.12
2019-05-14T10:03:39.351Z,2801.25
2019-05-14T10:06:39.422Z,2902.50
2019-05-14T10:09:39.368Z,2930.62
2019-05-14T10:12:50.890Z,3015.00
2019-05-14T10:15:40.108Z,1603.12
2019-05-14T10:18:39.049Z,3138.75
2019-05-14T10:21:39.102Z,770.62
2019-05-14T10:24:39.029Z,691.88
2019-05-14T10:27:38.958Z,2902.50
2019-05-14T10:30:38.954Z,3048.75
2019-05-14T10:33:38.915Z,3026.25
2019-05-14T10:36:38.884Z,658.12
2019-05-14T10:39:39.335Z,736.88
2019-05-14T10:42:40.535Z,691.88
2019-05-14T10:45:38.804Z,3256.88
2019-05-14T10:48:39.520Z,697.50
2019-05-14T10:51:39.026Z,1974.38
2019-05-14T10:54:47.811Z,3105.00
2019-05-14T10:57:39.650Z,2992.50
2019-05-14T11:00:41.860Z,2851.88
2019-05-14T11:03:38.920Z,506.25
2019-05-14T11:06:38.929Z,2857.50
2019-05-14T11:09:38.527Z,2868.75
2019-05-14T11:12:39.634Z,2958.75
2019-05-14T11:15:39.460Z,2784.38
2019-05-14T11:18:39.918Z,2947.50
2019-05-14T11:21:39.191Z,2801.25
2019-05-14T11:24:38.716Z,601.88
2019-05-14T11:27:38.896Z,590.62
2019-05-14T11:30:39.225Z,1271.25
2019-05-14T11:33:38.818Z,2930.62
2019-05-14T11:36:38.973Z,708.75
2019-05-14T11:39:38.227Z,630.00
2019-05-14T11:42:38.789Z,551.25
2019-05-14T11:45:39.225Z,2728.12
2019-05-14T11:48:39.337Z,2531.25
2019-05-14T11:51:59.503Z,2311.88
2019-05-14T11:54:40.941Z,2677.50
2019-05-14T11:57:38.046Z,556.88
2019-05-14T12:00:38.702Z,489.38
2019-05-14T12:03:39.400Z,2272.50
2019-05-14T12:06:39.115Z,2576.25
2019-05-14T12:09:39.122Z,2536.88
2019-05-14T12:12:37.908Z,455.62
2019-05-14T12:15:38.884Z,466.88
2019-05-14T12:18:41.797Z,585.00
2019-05-14T12:21:39.773Z,1687.50
2019-05-14T12:24:38.742Z,2210.62
2019-05-14T12:27:38.843Z,1918.12
2019-05-14T12:30:39.559Z,1164.38
2019-05-14T12:33:39.662Z,1293.75
2019-05-14T12:36:38.876Z,1350.00
2019-05-14T12:39:37.629Z,489.38
2019-05-14T12:42:39.215Z,506.25
2019-05-14T12:45:39.371Z,399.38
2019-05-14T12:48:38.947Z,421.88
2019-05-14T12:51:41.738Z,1321.88
2019-05-14T12:54:38.862Z,1648.12
2019-05-14T12:57:39.427Z,523.12
2019-05-14T13:00:39.329Z,495.00
2019-05-14T13:03:37.352Z,1721.25
2019-05-14T13:06:40.106Z,450.00
2019-05-14T13:09:38.564Z,562.50
2019-05-14T13:12:39.064Z,1209.38
2019-05-14T13:15:39.352Z,990.00
2019-05-14T13:18:38.767Z,916.88
2019-05-14T13:21:38.927Z,483.75
2019-05-14T13:24:39.387Z,551.25
2019-05-14T13:27:39.192Z,1130.62
2019-05-14T13:30:37.104Z,1164.38
2019-05-14T13:33:39.320Z,1080.00
2019-05-14T13:36:39.529Z,326.25
2019-05-14T13:39:39.827Z,331.88
2019-05-14T13:42:39.923Z,978.75
2019-05-14T13:45:39.148Z,1057.50
2019-05-14T13:48:42.679Z,888.75
2019-05-14T13:51:38.821Z,911.25
2019-05-14T13:54:39.146Z,950.62
2019-05-14T13:57:39.481Z,1085.62
2019-05-14T14:00:36.771Z,1125.00
2019-05-14T14:03:46.646Z,1153.12
2019-05-14T14:06:39.399Z,855.00
2019-05-14T14:09:39.138Z,444.38
2019-05-14T14:12:39.908Z,658.12
2019-05-14T14:15:38.456Z,585.00
2019-05-14T14:18:38.860Z,1490.62
2019-05-14T14:21:39.361Z,1068.75
2019-05-14T14:24:38.695Z,905.62
2019-05-14T14:27:39.982Z,326.25
2019-05-14T14:30:39.287Z,315.00
2019-05-14T14:33:38.910Z,410.62
2019-05-14T14:36:38.657Z,714.38
2019-05-14T14:39:36.391Z,691.88
2019-05-14T14:42:36.323Z,630.00
2019-05-14T14:45:44.789Z,669.38
2019-05-14T14:48:39.571Z,556.88
2019-05-14T14:51:41.738Z,483.75
2019-05-14T14:54:38.183Z,315.00
2019-05-14T14:57:37.899Z,286.88
2019-05-14T15:02:21.015Z,579.38
2019-05-14T15:05:21.038Z,573.75
2019-05-14T15:08:20.942Z,590.62
2019-05-14T15:11:20.936Z,641.25
2019-05-14T15:14:20.889Z,641.25
2019-05-14T15:17:20.892Z,551.25
2019-05-14T15:20:20.818Z,292.50
2019-05-14T15:23:20.815Z,275.62
2019-05-14T15:26:20.776Z,489.38
2019-05-14T15:29:20.729Z,568.12
2019-05-14T15:32:20.711Z,545.62
2019-05-14T15:35:20.653Z,551.25
2019-05-14T15:38:30.510Z,421.88
2019-05-14T15:41:20.735Z,275.62
2019-05-14T15:44:20.594Z,427.50
2019-05-14T15:47:20.522Z,230.62
2019-05-14T15:50:20.507Z,489.38
2019-05-14T15:53:20.494Z,241.88
2019-05-14T15:56:20.433Z,461.25
2019-05-14T15:59:20.424Z,455.62
2019-05-14T16:02:20.378Z,517.50
2019-05-14T16:05:20.341Z,523.12
2019-05-14T16:08:22.892Z,421.88
2019-05-14T16:11:20.267Z,517.50
2019-05-14T16:14:20.251Z,393.75
2019-05-14T16:17:24.509Z,230.62
2019-05-14T16:20:21.195Z,213.75
2019-05-14T16:23:20.166Z,219.38
2019-05-14T16:26:20.115Z,315.00
2019-05-14T16:29:36.873Z,298.12
2019-05-14T16:32:21.035Z,281.25
2019-05-14T16:35:21.306Z,303.75
2019-05-14T16:38:23.033Z,185.62
2019-05-14T16:41:19.938Z,258.75
2019-05-14T16:44:19.934Z,174.38
2019-05-14T16:47:19.889Z,275.62
2019-05-14T16:50:19.866Z,275.62
2019-05-14T16:53:19.813Z,264.38
2019-05-14T16:56:19.808Z,247.50
2019-05-14T16:59:19.742Z,230.62
2019-05-14T17:02:19.740Z,230.62
2019-05-14T17:05:19.686Z,225.00
2019-05-14T17:08:19.715Z,219.38
2019-05-14T17:11:19.627Z,202.50
2019-05-14T17:14:19.594Z,180.00
2019-05-14T17:17:20.146Z,163.12
2019-05-14T17:20:23.660Z,168.75
2019-05-14T17:23:19.482Z,168.75
2019-05-14T17:26:19.473Z,146.25
2019-05-14T17:29:19.448Z,151.88
2019-05-14T17:32:19.398Z,140.62
2019-05-14T17:35:19.762Z,123.75
2019-05-14T17:38:19.313Z,106.88
2019-05-14T17:41:19.680Z,106.88
2019-05-14T17:44:19.247Z,106.88
2019-05-14T17:47:19.245Z,106.88
2019-05-14T17:50:19.202Z,95.62
2019-05-14T17:53:19.155Z,95.62
2019-05-14T17:56:22.420Z,90.00
2019-05-14T17:59:19.324Z,95.62
2019-05-14T18:02:19.295Z,84.38
2019-05-14T18:05:19.035Z,84.38
2019-05-14T18:08:26.026Z,78.75
2019-05-14T18:11:19.278Z,78.75
2019-05-14T18:14:19.176Z,73.12
2019-05-14T18:17:19.047Z,67.50
2019-05-14T18:20:18.862Z,67.50
2019-05-14T18:23:18.861Z,61.88
2019-05-14T18:26:19.090Z,61.88
2019-05-14T18:29:19.063Z,56.25
2019-05-14T18:32:19.091Z,50.62
2019-05-14T18:35:18.985Z,50.62
2019-05-14T18:38:19.417Z,45.00
2019-05-14T18:41:19.046Z,39.38
2019-05-14T18:44:19.115Z,33.75
2019-05-14T18:47:20.018Z,28.12
2019-05-14T18:50:19.614Z,22.50
2019-05-14T18:53:19.082Z,22.50
2019-05-14T18:56:23.782Z,16.88
2019-05-14T18:59:21.339Z,16.88
2019-05-14T19:02:18.572Z,11.25
2019-05-14T19:05:18.435Z,11.25
2019-05-14T19:08:18.334Z,5.62
2019-05-14T19:11:18.332Z,5.62
2019-05-14T19:14:18.861Z,5.62
2019-05-14T19:17:18.770Z,0.00
2019-05-14T19:20:19.280Z,0.00
2019-05-14T19:23:18.805Z,0.00
2019-05-14T19:26:32.999Z,0.00
2019-05-14T19:29:19.098Z,0.00
2019-05-14T19:32:19.105Z,0.00
2019-05-14T19:35:19.170Z,0.00
2019-05-14T19:38:18.031Z,0.00
2019-05-14T19:41:20.931Z,0.00
2019-05-14T19:44:19.087Z,0.00
2019-05-14T19:47:18.685Z,0.00
2019-05-14T19:50:18.745Z,0.00
2019-05-14T19:53:17.863Z,0.00
2019-05-14T19:56:17.839Z,0.00
2019-05-14T19:59:18.292Z,0.00
2019-05-14T20:02:18.425Z,0.00
2019-05-14T20:05:19.086Z,0.00
2019-05-14T20:08:18.913Z,0.00
2019-05-14T20:11:19.312Z,0.00
2019-05-14T20:14:17.602Z,0.00
2019-05-14T20:17:19.449Z,0.00
2019-05-14T20:20:19.312Z,0.00
2019-05-14T20:23:18.524Z,0.00
2019-05-14T20:26:17.496Z,0.00
2019-05-14T20:29:19.467Z,0.00
2019-05-14T20:32:19.399Z,0.00
2019-05-14T20:35:30.356Z,0.00
2019-05-14T20:38:18.653Z,0.00
2019-05-14T20:41:18.015Z,0.00
2019-05-14T20:44:18.898Z,0.00
2019-05-14T20:47:19.001Z,0.00
2019-05-14T20:50:18.258Z,0.00
2019-05-14T20:53:18.596Z,0.00
2019-05-14T20:56:18.941Z,0.00
2019-05-14T20:59:19.157Z,0.00
2019-05-14T21:02:18.625Z,0.00
2019-05-14T21:05:18.804Z,0.00
2019-05-14T21:08:18.850Z,0.00
2019-05-14T21:11:19.092Z,0.00
2019-05-14T21:14:18.282Z,0.00
2019-05-14T21:17:19.100Z,0.00
2019-05-14T21:20:18.432Z,0.00
2019-05-14T21:23:18.357Z,0.00
2019-05-14T21:26:19.160Z,0.00
2019-05-14T21:29:16.759Z,0.00
2019-05-14T21:32:19.459Z,0.00
2019-05-14T21:35:19.113Z,0.00
2019-05-14T21:38:18.990Z,0.00
2019-05-14T21:41:20.149Z,0.00
2019-05-14T21:44:18.695Z,0.00
2019-05-14T21:47:16.561Z,0.00
2019-05-14T21:50:18.122Z,0.00
2019-05-14T21:53:18.959Z,0.00
2019-05-14T21:56:21.294Z,0.00
2019-05-14T21:59:18.914Z,0.00
2019-05-14T22:02:24.450Z,0.00
2019-05-14T22:05:18.977Z,0.00
2019-05-14T22:08:16.355Z,0.00
2019-05-14T22:11:18.644Z,0.00
2019-05-14T22:14:18.638Z,0.00
2019-05-14T22:17:16.244Z,0.00
2019-05-14T22:20:16.232Z,0.00
2019-05-14T22:23:17.831Z,0.00
2019-05-14T22:26:18.450Z,0.00
2019-05-14T22:29:17.892Z,0.00
2019-05-14T22:32:16.093Z,0.00
2019-05-14T22:35:16.092Z,0.00
2019-05-14T22:38:20.008Z,0.00
2019-05-14T22:41:18.416Z,0.00
2019-05-14T22:44:15.953Z,0.00
2019-05-14T22:47:15.944Z,0.00
2019-05-14T22:50:18.270Z,0.00
2019-05-14T22:53:15.858Z,0.00
2019-05-14T22:56:15.853Z,0.00
2019-05-14T22:59:15.792Z,0.00
2019-05-14T23:02:15.781Z,0.00
2019-05-14T23:05:15.757Z,0.00
2019-05-14T23:08:15.699Z,0.00
2019-05-14T23:11:15.690Z,0.00
2019-05-14T23:14:15.638Z,0.00
2019-05-14T23:17:15.628Z,0.00
2019-05-14T23:20:15.573Z,0.00
2019-05-14T23:23:15.561Z,0.00
2019-05-14T23:26:15.513Z,0.00
2019-05-14T23:29:15.491Z,0.00
2019-05-14T23:32:15.467Z,0.00
2019-05-14T23:35:15.412Z,0.00
2019-05-14T23:38:15.398Z,0.00
2019-05-14T23:41:15.353Z,0.00
2019-05-14T23:44:15.349Z,0.00
2019-05-14T23:47:15.290Z,0.00
2019-05-14T23:50:15.279Z,0.00
2019-05-14T23:53:15.222Z,0.00
2019-05-14T23:56:15.211Z,0.00
2019-05-14T23:59:15.186Z,0.00
